Detalii statie RECOND [00001D02]

Toti senzorii

Date Temperatura solului [C]Precipitatii [mm]Voltaj baterie [mV]Leaf Wetness [Min]HC Air temperature [C]HC Relative humidity [%]Punctul de roua [C]
medieminmaxsumaultimatimpmedieminmaxmediemediemin
2017-10-20 09:00:00 0 6884 14.74 13.97 16.29 0 0 0
2017-10-20 10:00:00 0 6894 19.45 16.84 21.2 0 0 0
2017-10-20 11:00:00 0 6894 19.92 18.81 21.02 0 0 0
2017-10-20 12:00:00 0 6894 19.39 18.99 20.22 0 0 0
2017-10-20 13:00:00 0 6904 20.98 20.36 21.59 0 0 0
2017-10-20 14:00:00 0 6904 21.84 21.7 21.99 0 0 0
2017-10-20 15:00:00 0 6904 21.77 21.74 21.83 0 0 0
2017-10-20 16:00:00 0 6904 21.82 21.75 21.86 0 0 0
2017-10-20 17:00:00 0 6904 21.49 21.18 21.73 0 0 0
2017-10-20 18:00:00 0 6904 20.61 20.07 21.1 0 0 0
2017-10-20 19:00:00 0 6904 19.28 18.7 19.95 0 0 0
2017-10-20 20:00:00 0 6904 18.14 17.71 18.59 0 0 0
2017-10-20 21:00:00 0 6904 17.38 17.11 17.66 0 0 0
2017-10-20 22:00:00 0 6894 16.83 16.65 17.07 0 0 0
2017-10-20 23:00:00 0 6884 16.39 16.14 16.62 0 0 0
2017-10-21 00:00:00 0 6884 15.85 15.6 16.09 0 0 0
2017-10-21 01:00:00 0 6884 15.15 14.94 15.51 0 0 0
2017-10-21 02:00:00 0 6884 14.76 14.61 14.94 0 0 0
2017-10-21 03:00:00 0 6884 14.41 14.22 14.6 0 0 0
2017-10-21 04:00:00 0 6884 14.01 13.82 14.2 0 0 0
2017-10-21 05:00:00 0 6894 13.61 13.48 13.79 0 0 0
2017-10-21 06:00:00 0 6884 13.29 13.13 13.46 0 0 0
2017-10-21 07:00:00 0 6884 12.91 12.75 13.12 0 0 0
2017-10-21 08:00:00 0 6874 12.78 12.69 13.08 0 0 0
2017-10-21 09:00:00 0 6874 14.06 13.18 15.65 0 0 0
2017-10-21 10:00:00 0 6884 18.06 16.12 19.3 0 0 0
2017-10-21 11:00:00 0 6884 18.24 17.59 19.16 0 0 0
2017-10-21 12:00:00 0 6884 17.94 17.43 18.85 0 0 0
2017-10-21 13:00:00 0 6884 19.62 19.03 20.01 0 0 0
2017-10-21 14:00:00 0 6884 20.37 20.15 20.48 0 0 0
2017-10-21 15:00:00 0 6894 20.38 20.32 20.44 0 0 0
2017-10-21 16:00:00 0 6894 20.43 20.37 20.46 0 0 0
2017-10-21 17:00:00 0 6894 20.1 19.74 20.37 0 0 0
2017-10-21 18:00:00 0 6884 19.18 18.68 19.68 0 0 0
2017-10-21 19:00:00 0 6884 18.11 17.67 18.61 0 0 0
2017-10-21 20:00:00 0 6884 17.24 16.94 17.59 0 0 0
2017-10-21 21:00:00 0 6894 16.85 16.81 16.92 0 0 0
2017-10-21 22:00:00 0 6884 16.81 16.8 16.83 0 0 0
2017-10-21 23:00:00 0 6884 16.7 16.59 16.8 0 0 0
2017-10-22 00:00:00 0 6874 16.44 16.28 16.59 0 0 0
2017-10-22 01:00:00 0 6884 16.05 15.87 16.25 0 0 0
2017-10-22 02:00:00 0 6884 15.73 15.6 15.86 0 0 0
2017-10-22 03:00:00 0 6874 15.37 15.2 15.55 0 0 0
2017-10-22 04:00:00 0 6874 14.99 14.81 15.17 0 0 0
2017-10-22 05:00:00 0 6874 14.6 14.44 14.8 0 0 0
2017-10-22 06:00:00 0 6874 14.28 14.16 14.42 0 0 0
2017-10-22 07:00:00 0 6874 13.97 13.85 14.14 0 0 0
2017-10-22 08:00:00 0 6874 13.88 13.78 14.15 0 0 0